首页
METAR-TAF:

METAR-TAF

机场 :

阿爾及爾, 阿尔及利亚

阿尔及尔胡阿里·布迈丁机场

纬度: 36-43N, 经度: 003-15E, 海拔: 25米

当前天气观测

该预报发布于17分钟前的01:30 UTC
风速3节,风向南转南东
温度 8°C
湿度 93%
气压 1018 hPa
能見度: 6000
少量云层高于1300英尺
散云层高于4000英尺

METAR: DAAG 190130Z 15003KT 6000 FEW013 SCT040 08/07 Q1018

时间: 02:47 (01:47 UTC)

预报

该预报发布于2小时和47分钟前的23:00 UTC
预报有效从19日的 00点(UTC)到 19日的 24点(UTC)
风速2节,风向多变
能見度: 8000
少量云层高于2000英尺
散云层高于4000英尺
几率 30% :
短暂存在
从 19日的 00点(UTC)到 19日的 06点(UTC)
能見度: 4000
多云层高于1500英尺
轻雾
成为
从 19日的 10点(UTC)到 19日的 13点(UTC)
风速10节,风向西北
几率 40% :
短暂存在
从 19日的 14点(UTC)到 19日的 20点(UTC)
能見度: 5000
少量云层高于2300英尺, 积雨云.
小雨
成为
从 19日的 17点(UTC)到 19日的 20点(UTC)
风速2节,风向多变

TAF: DAAG 182300Z 1900/1924 VRB02KT 8000 FEW020 SCT040 PROB30 TEMPO 1900/1906 4000 BR BKN015 BECMG 1910/1913 32010KT PROB40 TEMPO 1914/1920 5000 -RA FEW023CB BECMG 1917/1920 VRB02KT

超过4000个机场的气象观测和天气预报(METAR&TAF报告)。

可查询的气象台以黄色和红色小点在地图上表示。

将鼠标移到小点上方,可查看气象台名称。

然后点击查看天气观测和预报。

如需切换地图:点击带黑十字的绿色按钮放大地图;点击带横线的绿色按钮缩小地图;或者点击绿色箭头查看邻近地区的地图。


METAR-TAF: